Ar Rayyan, Qatar
Current Conditions -  °F | °C
As of 2:58 PM on Saturday 25 Oct 2014 (Local Time) from KQIR Reporting Station
Clear Clear  
Wind Chill: 93°   Ceiling: Unl
Heat Index: 93°   Visibility: 6mi
Dew Point: 54°   Wind: 9mph
Humidity: 27%   Direction: 30°NNE
Pressure: 29.81"   Gusts: NA
Location:  25.32°N, 51.37°E
Report Text: KQIR 251158Z 03008KT 9999 CLR 34/12 A2981 RMK AO2A SLP096 T03400123 10340 20287 56018 $
Loading
Personal Weather Stations






























Interactive Weather Map
Tropical Storm Tracking
New forecast layout! Learn more

10-Day Weather Forecast

Advertisements
Track Severe Weather on mobile